sensor_id;sensor_type;location;lat;lon;timestamp;pressure;altitude;pressure_sealevel;temperature;humidity
21658;BME280;10990;48.174;9.782;2023-04-16T00:01:01;93569.97;;;6.72;100.00
21658;BME280;10990;48.174;9.782;2023-04-16T00:03:28;93576.09;;;6.64;100.00
21658;BME280;10990;48.174;9.782;2023-04-16T00:05:54;93579.78;;;6.55;100.00
21658;BME280;10990;48.174;9.782;2023-04-16T00:08:21;93575.28;;;6.64;100.00
21658;BME280;10990;48.174;9.782;2023-04-16T00:10:50;93569.94;;;6.57;100.00
21658;BME280;10990;48.174;9.782;2023-04-16T00:13:16;93561.81;;;6.67;100.00
21658;BME280;10990;48.174;9.782;2023-04-16T00:15:45;93556.84;;;6.72;100.00
21658;BME280;10990;48.174;9.782;2023-04-16T00:18:11;93566.78;;;6.62;100.00
21658;BME280;10990;48.174;9.782;2023-04-16T00:20:38;93564.50;;;6.59;100.00
21658;BME280;10990;48.174;9.782;2023-04-16T00:23:05;93564.50;;;6.59;100.00
21658;BME280;10990;48.174;9.782;2023-04-16T00:25:32;93563.97;;;6.63;100.00
21658;BME280;10990;48.174;9.782;2023-04-16T00:27:58;93433.91;;;6.53;100.00
21658;BME280;10990;48.174;9.782;2023-04-16T00:30:25;93406.41;;;6.63;100.00
21658;BME280;10990;48.174;9.782;2023-04-16T00:32:53;93378.59;;;6.69;100.00
21658;BME280;10990;48.174;9.782;2023-04-16T00:35:20;93378.97;;;6.66;100.00
21658;BME280;10990;48.174;9.782;2023-04-16T00:37:47;93358.13;;;6.79;100.00
21658;BME280;10990;48.174;9.782;2023-04-16T00:40:14;93374.72;;;6.65;100.00
21658;BME280;10990;48.174;9.782;2023-04-16T00:42:40;93364.44;;;6.70;100.00
21658;BME280;10990;48.174;9.782;2023-04-16T00:45:09;93366.75;;;6.73;100.00
21658;BME280;10990;48.174;9.782;2023-04-16T00:47:37;93362.28;;;6.59;100.00
21658;BME280;10990;48.174;9.782;2023-04-16T00:50:06;93360.03;;;6.56;100.00
21658;BME280;10990;48.174;9.782;2023-04-16T00:52:33;93341.56;;;6.64;100.00
21658;BME280;10990;48.174;9.782;2023-04-16T00:55:00;93354.59;;;6.57;100.00
21658;BME280;10990;48.174;9.782;2023-04-16T00:57:27;93341.44;;;6.72;100.00
21658;BME280;10990;48.174;9.782;2023-04-16T00:59:54;93336.03;;;6.73;100.00
21658;BME280;10990;48.174;9.782;2023-04-16T01:02:22;93345.72;;;6.58;100.00
21658;BME280;10990;48.174;9.782;2023-04-16T01:04:49;93337.66;;;6.60;100.00
21658;BME280;10990;48.174;9.782;2023-04-16T01:07:18;93319.69;;;6.78;100.00
21658;BME280;10990;48.174;9.782;2023-04-16T01:09:44;93322.63;;;6.68;100.00
21658;BME280;10990;48.174;9.782;2023-04-16T01:12:12;93320.63;;;6.70;100.00
21658;BME280;10990;48.174;9.782;2023-04-16T01:14:39;93313.75;;;6.84;100.00
21658;BME280;10990;48.174;9.782;2023-04-16T01:17:05;93320.28;;;6.73;100.00
21658;BME280;10990;48.174;9.782;2023-04-16T01:19:32;93317.22;;;6.91;100.00
21658;BME280;10990;48.174;9.782;2023-04-16T01:22:02;93320.78;;;6.84;100.00
21658;BME280;10990;48.174;9.782;2023-04-16T01:24:29;93320.78;;;6.84;100.00
21658;BME280;10990;48.174;9.782;2023-04-16T01:26:58;93331.75;;;6.87;100.00
21658;BME280;10990;48.174;9.782;2023-04-16T01:29:25;93328.28;;;6.87;100.00
21658;BME280;10990;48.174;9.782;2023-04-16T01:31:53;93346.81;;;6.64;100.00
21658;BME280;10990;48.174;9.782;2023-04-16T01:34:26;93330.03;;;6.80;100.00
21658;BME280;10990;48.174;9.782;2023-04-16T01:36:52;93336.00;;;6.88;100.00
21658;BME280;10990;48.174;9.782;2023-04-16T01:39:21;93329.28;;;6.86;100.00
21658;BME280;10990;48.174;9.782;2023-04-16T01:41:48;93327.84;;;6.83;100.00
21658;BME280;10990;48.174;9.782;2023-04-16T01:44:15;93314.44;;;6.93;100.00
21658;BME280;10990;48.174;9.782;2023-04-16T01:46:42;93321.69;;;6.91;100.00
21658;BME280;10990;48.174;9.782;2023-04-16T01:49:09;93335.38;;;6.71;100.00
21658;BME280;10990;48.174;9.782;2023-04-16T01:51:36;93315.09;;;6.80;100.00
21658;BME280;10990;48.174;9.782;2023-04-16T01:54:03;93326.34;;;6.74;100.00
21658;BME280;10990;48.174;9.782;2023-04-16T01:56:31;93314.91;;;6.82;100.00
21658;BME280;10990;48.174;9.782;2023-04-16T01:58:58;93323.72;;;6.74;100.00
21658;BME280;10990;48.174;9.782;2023-04-16T02:01:31;93311.28;;;6.83;100.00
21658;BME280;10990;48.174;9.782;2023-04-16T02:03:58;93311.72;;;6.86;100.00
21658;BME280;10990;48.174;9.782;2023-04-16T02:06:25;93309.66;;;6.82;100.00
21658;BME280;10990;48.174;9.782;2023-04-16T02:08:52;93318.63;;;6.72;100.00
21658;BME280;10990;48.174;9.782;2023-04-16T02:11:19;93310.03;;;6.79;100.00
21658;BME280;10990;48.174;9.782;2023-04-16T02:13:49;93298.06;;;6.76;100.00
21658;BME280;10990;48.174;9.782;2023-04-16T02:16:17;93307.06;;;6.52;100.00
21658;BME280;10990;48.174;9.782;2023-04-16T02:18:48;93291.22;;;6.60;100.00
21658;BME280;10990;48.174;9.782;2023-04-16T02:21:17;93287.84;;;6.66;100.00
21658;BME280;10990;48.174;9.782;2023-04-16T02:23:45;93267.63;;;6.82;100.00
21658;BME280;10990;48.174;9.782;2023-04-16T02:26:17;93270.97;;;6.76;100.00
21658;BME280;10990;48.174;9.782;2023-04-16T02:28:44;93274.72;;;6.66;100.00
21658;BME280;10990;48.174;9.782;2023-04-16T02:31:13;93273.25;;;6.64;100.00
21658;BME280;10990;48.174;9.782;2023-04-16T02:33:44;93252.97;;;6.72;100.00
21658;BME280;10990;48.174;9.782;2023-04-16T02:36:10;93253.78;;;6.73;100.00
21658;BME280;10990;48.174;9.782;2023-04-16T02:38:37;93244.72;;;6.76;100.00
21658;BME280;10990;48.174;9.782;2023-04-16T02:41:05;93231.22;;;6.79;100.00
21658;BME280;10990;48.174;9.782;2023-04-16T02:43:33;93233.00;;;6.78;100.00
21658;BME280;10990;48.174;9.782;2023-04-16T02:46:00;93241.84;;;6.70;100.00
21658;BME280;10990;48.174;9.782;2023-04-16T02:48:28;93241.00;;;6.70;100.00
21658;BME280;10990;48.174;9.782;2023-04-16T02:50:55;93237.69;;;6.61;100.00
21658;BME280;10990;48.174;9.782;2023-04-16T02:53:22;93211.81;;;6.80;100.00
21658;BME280;10990;48.174;9.782;2023-04-16T02:55:49;93217.19;;;6.71;100.00
21658;BME280;10990;48.174;9.782;2023-04-16T02:58:18;93205.50;;;6.74;100.00
21658;BME280;10990;48.174;9.782;2023-04-16T03:00:45;93220.84;;;6.56;100.00
21658;BME280;10990;48.174;9.782;2023-04-16T03:03:11;93204.38;;;6.62;100.00
21658;BME280;10990;48.174;9.782;2023-04-16T03:05:40;93191.00;;;6.78;100.00
21658;BME280;10990;48.174;9.782;2023-04-16T03:08:07;93204.13;;;6.57;100.00
21658;BME280;10990;48.174;9.782;2023-04-16T03:10:34;93190.19;;;6.56;100.00
21658;BME280;10990;48.174;9.782;2023-04-16T03:13:01;93171.75;;;6.71;100.00
21658;BME280;10990;48.174;9.782;2023-04-16T03:15:28;93175.34;;;6.70;100.00
21658;BME280;10990;48.174;9.782;2023-04-16T03:17:55;93180.50;;;6.57;100.00
21658;BME280;10990;48.174;9.782;2023-04-16T03:20:22;93167.47;;;6.70;100.00
21658;BME280;10990;48.174;9.782;2023-04-16T03:22:53;93165.97;;;6.61;100.00
21658;BME280;10990;48.174;9.782;2023-04-16T03:25:19;93166.06;;;6.67;100.00
21658;BME280;10990;48.174;9.782;2023-04-16T03:27:46;93157.22;;;6.75;100.00
21658;BME280;10990;48.174;9.782;2023-04-16T03:30:14;93159.00;;;6.68;100.00
21658;BME280;10990;48.174;9.782;2023-04-16T03:32:42;93155.47;;;6.61;100.00
21658;BME280;10990;48.174;9.782;2023-04-16T03:35:09;93156.38;;;6.53;100.00
21658;BME280;10990;48.174;9.782;2023-04-16T03:37:37;93145.84;;;6.68;100.00
21658;BME280;10990;48.174;9.782;2023-04-16T03:40:06;93140.16;;;6.64;100.00
21658;BME280;10990;48.174;9.782;2023-04-16T03:42:33;93132.47;;;6.63;100.00
21658;BME280;10990;48.174;9.782;2023-04-16T03:45:01;93133.66;;;6.60;100.00
21658;BME280;10990;48.174;9.782;2023-04-16T03:47:28;93130.41;;;6.58;100.00
21658;BME280;10990;48.174;9.782;2023-04-16T03:49:59;93121.91;;;6.56;100.00
21658;BME280;10990;48.174;9.782;2023-04-16T03:52:26;93116.84;;;6.55;100.00
21658;BME280;10990;48.174;9.782;2023-04-16T03:54:54;93106.50;;;6.53;100.00
21658;BME280;10990;48.174;9.782;2023-04-16T03:57:27;93086.06;;;6.70;100.00
21658;BME280;10990;48.174;9.782;2023-04-16T04:00:00;93100.75;;;6.64;100.00
21658;BME280;10990;48.174;9.782;2023-04-16T04:02:39;93093.50;;;6.66;100.00
21658;BME280;10990;48.174;9.782;2023-04-16T04:05:12;93080.19;;;6.68;100.00
21658;BME280;10990;48.174;9.782;2023-04-16T04:07:39;93088.59;;;6.57;100.00
21658;BME280;10990;48.174;9.782;2023-04-16T04:10:08;93074.88;;;6.61;100.00
21658;BME280;10990;48.174;9.782;2023-04-16T04:12:39;93072.44;;;6.60;100.00
21658;BME280;10990;48.174;9.782;2023-04-16T04:15:07;93068.38;;;6.57;100.00
21658;BME280;10990;48.174;9.782;2023-04-16T04:17:34;93066.63;;;6.64;100.00
21658;BME280;10990;48.174;9.782;2023-04-16T04:20:01;93065.81;;;6.64;100.00
21658;BME280;10990;48.174;9.782;2023-04-16T04:22:30;93051.56;;;6.73;100.00
21658;BME280;10990;48.174;9.782;2023-04-16T04:24:57;93057.16;;;6.70;100.00
21658;BME280;10990;48.174;9.782;2023-04-16T04:27:26;93068.19;;;6.59;100.00
21658;BME280;10990;48.174;9.782;2023-04-16T04:29:54;93054.09;;;6.66;100.00
21658;BME280;10990;48.174;9.782;2023-04-16T04:32:21;93060.81;;;6.69;100.00
21658;BME280;10990;48.174;9.782;2023-04-16T04:34:48;93038.63;;;6.78;100.00
21658;BME280;10990;48.174;9.782;2023-04-16T04:37:15;93050.28;;;6.69;100.00
21658;BME280;10990;48.174;9.782;2023-04-16T04:39:42;93045.47;;;6.72;100.00
21658;BME280;10990;48.174;9.782;2023-04-16T04:42:11;93045.28;;;6.74;100.00
21658;BME280;10990;48.174;9.782;2023-04-16T04:44:38;93033.59;;;6.77;100.00
21658;BME280;10990;48.174;9.782;2023-04-16T04:47:08;93041.41;;;6.70;100.00
21658;BME280;10990;48.174;9.782;2023-04-16T04:49:35;93029.44;;;6.89;100.00
21658;BME280;10990;48.174;9.782;2023-04-16T04:52:02;93041.25;;;6.78;100.00
21658;BME280;10990;48.174;9.782;2023-04-16T04:54:31;93040.72;;;6.83;100.00
21658;BME280;10990;48.174;9.782;2023-04-16T04:56:58;93039.91;;;6.82;100.00
21658;BME280;10990;48.174;9.782;2023-04-16T04:59:26;93031.91;;;6.97;100.00
21658;BME280;10990;48.174;9.782;2023-04-16T05:01:53;93047.41;;;6.85;100.00
21658;BME280;10990;48.174;9.782;2023-04-16T05:04:21;93052.25;;;6.88;100.00
21658;BME280;10990;48.174;9.782;2023-04-16T05:06:47;93047.41;;;6.85;100.00
21658;BME280;10990;48.174;9.782;2023-04-16T05:09:14;93041.63;;;6.96;100.00
21658;BME280;10990;48.174;9.782;2023-04-16T05:11:41;93054.50;;;6.91;100.00
21658;BME280;10990;48.174;9.782;2023-04-16T05:14:08;93046.47;;;7.00;100.00
21658;BME280;10990;48.174;9.782;2023-04-16T05:16:35;93050.78;;;7.07;100.00
21658;BME280;10990;48.174;9.782;2023-04-16T05:19:02;93050.78;;;7.07;100.00
21658;BME280;10990;48.174;9.782;2023-04-16T05:21:31;93063.78;;;6.87;100.00
21658;BME280;10990;48.174;9.782;2023-04-16T05:23:58;93064.84;;;6.93;100.00
21658;BME280;10990;48.174;9.782;2023-04-16T05:26:24;93061.59;;;6.91;100.00
21658;BME280;10990;48.174;9.782;2023-04-16T05:28:51;93068.84;;;6.89;100.00
21658;BME280;10990;48.174;9.782;2023-04-16T05:31:18;93064.06;;;6.99;100.00
21658;BME280;10990;48.174;9.782;2023-04-16T05:33:45;93067.22;;;6.88;100.00
21658;BME280;10990;48.174;9.782;2023-04-16T05:36:12;93060.81;;;6.97;100.00
21658;BME280;10990;48.174;9.782;2023-04-16T05:38:40;93057.66;;;7.08;100.00
21658;BME280;10990;48.174;9.782;2023-04-16T05:41:07;93075.78;;;6.96;100.00
21658;BME280;10990;48.174;9.782;2023-04-16T05:43:33;93078.41;;;6.96;100.00
21658;BME280;10990;48.174;9.782;2023-04-16T05:46:00;93068.16;;;7.08;100.00
21658;BME280;10990;48.174;9.782;2023-04-16T05:48:27;93082.25;;;7.01;100.00
21658;BME280;10990;48.174;9.782;2023-04-16T05:50:54;93074.03;;;7.10;100.00
21658;BME280;10990;48.174;9.782;2023-04-16T05:53:20;93082.09;;;7.09;100.00
21658;BME280;10990;48.174;9.782;2023-04-16T05:55:49;93077.25;;;7.06;100.00
21658;BME280;10990;48.174;9.782;2023-04-16T05:58:16;93074.03;;;7.10;100.00
21658;BME280;10990;48.174;9.782;2023-04-16T06:00:43;93074.03;;;7.10;100.00
21658;BME280;10990;48.174;9.782;2023-04-16T06:03:10;93077.13;;;7.21;100.00
21658;BME280;10990;48.174;9.782;2023-04-16T06:05:36;93080.34;;;7.16;100.00
21658;BME280;10990;48.174;9.782;2023-04-16T06:08:03;93084.03;;;7.22;100.00
21658;BME280;10990;48.174;9.782;2023-04-16T06:10:30;93082.78;;;7.17;100.00
21658;BME280;10990;48.174;9.782;2023-04-16T06:12:58;93087.22;;;7.17;100.00
21658;BME280;10990;48.174;9.782;2023-04-16T06:15:25;93079.19;;;7.25;100.00
21658;BME280;10990;48.174;9.782;2023-04-16T06:17:53;93086.66;;;7.22;100.00
21658;BME280;10990;48.174;9.782;2023-04-16T06:20:19;93075.78;;;7.31;100.00
21658;BME280;10990;48.174;9.782;2023-04-16T06:22:46;93065.34;;;7.45;100.00
21658;BME280;10990;48.174;9.782;2023-04-16T06:25:13;93072.00;;;7.40;100.00
21658;BME280;10990;48.174;9.782;2023-04-16T06:27:40;93087.72;;;7.34;100.00
21658;BME280;10990;48.174;9.782;2023-04-16T06:30:12;93083.91;;;7.36;100.00
21658;BME280;10990;48.174;9.782;2023-04-16T06:32:41;93089.97;;;7.37;100.00
21658;BME280;10990;48.174;9.782;2023-04-16T06:35:08;93078.31;;;7.46;100.00
21658;BME280;10990;48.174;9.782;2023-04-16T06:37:35;93066.25;;;7.65;100.00
21658;BME280;10990;48.174;9.782;2023-04-16T06:40:02;93084.81;;;7.57;100.00
21658;BME280;10990;48.174;9.782;2023-04-16T06:42:29;93089.28;;;7.56;100.00
21658;BME280;10990;48.174;9.782;2023-04-16T06:44:55;93089.34;;;7.70;100.00
21658;BME280;10990;48.174;9.782;2023-04-16T06:47:23;93079.25;;;7.73;100.00
21658;BME280;10990;48.174;9.782;2023-04-16T06:49:51;93093.56;;;7.64;100.00
21658;BME280;10990;48.174;9.782;2023-04-16T06:52:18;93086.75;;;7.76;100.00
21658;BME280;10990;48.174;9.782;2023-04-16T06:54:45;93093.63;;;7.77;100.00
21658;BME280;10990;48.174;9.782;2023-04-16T06:57:11;93107.00;;;7.82;100.00
21658;BME280;10990;48.174;9.782;2023-04-16T06:59:38;93107.22;;;7.88;100.00
21658;BME280;10990;48.174;9.782;2023-04-16T07:02:06;93113.28;;;7.88;100.00
21658;BME280;10990;48.174;9.782;2023-04-16T07:04:35;93120.78;;;7.84;100.00
21658;BME280;10990;48.174;9.782;2023-04-16T07:07:02;93117.97;;;7.93;100.00
21658;BME280;10990;48.174;9.782;2023-04-16T07:09:29;93123.88;;;8.01;100.00
21658;BME280;10990;48.174;9.782;2023-04-16T07:11:56;93138.22;;;7.92;100.00
21658;BME280;10990;48.174;9.782;2023-04-16T07:14:22;93134.78;;;7.92;100.00
21658;BME280;10990;48.174;9.782;2023-04-16T07:16:49;93140.25;;;7.97;100.00
21658;BME280;10990;48.174;9.782;2023-04-16T07:19:16;93149.78;;;7.98;100.00
21658;BME280;10990;48.174;9.782;2023-04-16T07:21:44;93145.41;;;8.18;100.00
21658;BME280;10990;48.174;9.782;2023-04-16T07:24:11;93149.31;;;8.22;100.00
21658;BME280;10990;48.174;9.782;2023-04-16T07:26:38;93156.56;;;8.20;100.00
21658;BME280;10990;48.174;9.782;2023-04-16T07:29:05;93144.44;;;8.32;100.00
21658;BME280;10990;48.174;9.782;2023-04-16T07:31:32;93160.66;;;8.29;100.00
21658;BME280;10990;48.174;9.782;2023-04-16T07:33:58;93158.25;;;8.35;100.00
21658;BME280;10990;48.174;9.782;2023-04-16T07:36:25;93168.94;;;8.26;100.00
21658;BME280;10990;48.174;9.782;2023-04-16T07:38:55;93176.19;;;8.11;100.00
21658;BME280;10990;48.174;9.782;2023-04-16T07:41:21;93169.53;;;8.22;100.00
21658;BME280;10990;48.174;9.782;2023-04-16T07:43:48;93175.00;;;8.20;100.00
21658;BME280;10990;48.174;9.782;2023-04-16T07:46:15;93176.66;;;8.28;100.00
21658;BME280;10990;48.174;9.782;2023-04-16T07:48:42;93178.44;;;8.21;100.00
21658;BME280;10990;48.174;9.782;2023-04-16T07:51:09;93158.25;;;8.35;100.00
21658;BME280;10990;48.174;9.782;2023-04-16T07:53:35;93175.66;;;8.36;100.00
21658;BME280;10990;48.174;9.782;2023-04-16T07:56:04;93173.50;;;8.46;100.00
21658;BME280;10990;48.174;9.782;2023-04-16T07:58:31;93165.03;;;8.57;100.00
21658;BME280;10990;48.174;9.782;2023-04-16T08:00:57;93152.91;;;8.83;100.00
21658;BME280;10990;48.174;9.782;2023-04-16T08:03:24;93179.06;;;8.78;100.00
21658;BME280;10990;48.174;9.782;2023-04-16T08:05:51;93210.22;;;8.61;100.00
21658;BME280;10990;48.174;9.782;2023-04-16T08:08:18;93198.94;;;8.80;100.00
21658;BME280;10990;48.174;9.782;2023-04-16T08:10:45;93218.59;;;8.78;100.00
21658;BME280;10990;48.174;9.782;2023-04-16T08:13:13;93240.22;;;8.66;100.00
21658;BME280;10990;48.174;9.782;2023-04-16T08:15:39;93255.63;;;8.63;100.00
21658;BME280;10990;48.174;9.782;2023-04-16T08:18:06;93263.53;;;8.63;100.00
21658;BME280;10990;48.174;9.782;2023-04-16T08:20:37;93271.03;;;8.66;100.00
21658;BME280;10990;48.174;9.782;2023-04-16T08:23:04;93271.66;;;8.68;100.00
21658;BME280;10990;48.174;9.782;2023-04-16T08:25:30;93270.47;;;8.77;100.00
21658;BME280;10990;48.174;9.782;2023-04-16T08:27:57;93299.00;;;8.60;100.00
21658;BME280;10990;48.174;9.782;2023-04-16T08:30:26;93304.22;;;8.53;100.00
21658;BME280;10990;48.174;9.782;2023-04-16T08:32:53;93314.16;;;8.58;100.00
21658;BME280;10990;48.174;9.782;2023-04-16T08:35:20;93317.19;;;8.55;100.00
21658;BME280;10990;48.174;9.782;2023-04-16T08:37:47;93332.09;;;8.41;100.00
21658;BME280;10990;48.174;9.782;2023-04-16T08:40:14;93346.03;;;8.35;100.00
21658;BME280;10990;48.174;9.782;2023-04-16T08:42:44;93347.38;;;8.52;100.00
21658;BME280;10990;48.174;9.782;2023-04-16T08:45:16;93349.78;;;8.47;100.00
21658;BME280;10990;48.174;9.782;2023-04-16T08:47:46;93343.00;;;8.66;100.00
21658;BME280;10990;48.174;9.782;2023-04-16T08:50:14;93349.06;;;8.67;100.00
21658;BME280;10990;48.174;9.782;2023-04-16T08:52:44;93361.25;;;8.68;100.00
21658;BME280;10990;48.174;9.782;2023-04-16T08:55:12;93377.41;;;8.58;100.00
21658;BME280;10990;48.174;9.782;2023-04-16T08:57:45;93380.69;;;8.67;100.00
21658;BME280;10990;48.174;9.782;2023-04-16T09:00:13;93390.78;;;8.57;100.00
21658;BME280;10990;48.174;9.782;2023-04-16T09:02:41;93376.94;;;8.83;100.00
21658;BME280;10990;48.174;9.782;2023-04-16T09:05:13;93380.44;;;8.90;100.00
21658;BME280;10990;48.174;9.782;2023-04-16T09:07:42;93383.25;;;8.95;100.00
21658;BME280;10990;48.174;9.782;2023-04-16T09:10:10;93396.59;;;8.87;100.00
21658;BME280;10990;48.174;9.782;2023-04-16T09:12:39;93419.06;;;8.76;100.00
21658;BME280;10990;48.174;9.782;2023-04-16T09:15:08;93415.06;;;8.87;100.00
21658;BME280;10990;48.174;9.782;2023-04-16T09:17:36;93413.31;;;9.01;100.00
21658;BME280;10990;48.174;9.782;2023-04-16T09:20:05;93422.00;;;8.94;100.00
21658;BME280;10990;48.174;9.782;2023-04-16T09:22:34;93413.78;;;9.11;100.00
21658;BME280;10990;48.174;9.782;2023-04-16T09:25:01;93427.19;;;9.16;100.00
21658;BME280;10990;48.174;9.782;2023-04-16T09:27:29;93417.13;;;9.33;100.00
21658;BME280;10990;48.174;9.782;2023-04-16T09:29:57;93422.97;;;9.28;100.00
21658;BME280;10990;48.174;9.782;2023-04-16T09:32:25;93438.22;;;9.33;100.00
21658;BME280;10990;48.174;9.782;2023-04-16T09:34:54;93442.28;;;9.35;100.00
21658;BME280;10990;48.174;9.782;2023-04-16T09:37:22;93467.72;;;9.15;100.00
21658;BME280;10990;48.174;9.782;2023-04-16T09:39:54;93483.75;;;9.07;100.00
21658;BME280;10990;48.174;9.782;2023-04-16T09:42:23;93487.19;;;9.07;100.00
21658;BME280;10990;48.174;9.782;2023-04-16T09:44:50;93470.28;;;9.36;100.00
21658;BME280;10990;48.174;9.782;2023-04-16T09:47:16;93478.19;;;9.30;100.00
21658;BME280;10990;48.174;9.782;2023-04-16T09:49:43;93489.31;;;9.32;100.00
21658;BME280;10990;48.174;9.782;2023-04-16T09:52:15;93486.94;;;9.37;100.00
21658;BME280;10990;48.174;9.782;2023-04-16T09:54:46;93496.03;;;9.28;100.00
21658;BME280;10990;48.174;9.782;2023-04-16T09:57:17;93515.50;;;9.27;100.00
21658;BME280;10990;48.174;9.782;2023-04-16T09:59:46;93514.88;;;9.25;100.00
21658;BME280;10990;48.174;9.782;2023-04-16T10:02:13;93526.13;;;9.12;100.00
21658;BME280;10990;48.174;9.782;2023-04-16T10:04:50;93528.44;;;9.22;100.00
21658;BME280;10990;48.174;9.782;2023-04-16T10:07:17;93536.91;;;9.10;100.00
21658;BME280;10990;48.174;9.782;2023-04-16T10:09:44;93540.63;;;9.23;100.00
21658;BME280;10990;48.174;9.782;2023-04-16T10:12:13;93531.75;;;9.30;100.00
21658;BME280;10990;48.174;9.782;2023-04-16T10:14:41;93546.75;;;9.30;100.00
21658;BME280;10990;48.174;9.782;2023-04-16T10:17:08;93551.69;;;9.11;100.00
21658;BME280;10990;48.174;9.782;2023-04-16T10:19:35;93578.16;;;8.96;100.00
21658;BME280;10990;48.174;9.782;2023-04-16T10:22:02;93570.25;;;8.96;100.00
21658;BME280;10990;48.174;9.782;2023-04-16T10:24:30;93566.00;;;9.24;100.00
21658;BME280;10990;48.174;9.782;2023-04-16T10:26:58;93567.78;;;9.23;100.00
21658;BME280;10990;48.174;9.782;2023-04-16T10:29:26;93578.06;;;9.11;100.00
21658;BME280;10990;48.174;9.782;2023-04-16T10:31:55;93588.16;;;9.01;100.00
21658;BME280;10990;48.174;9.782;2023-04-16T10:34:23;93581.06;;;9.30;100.00
21658;BME280;10990;48.174;9.782;2023-04-16T10:36:51;93610.34;;;8.92;100.00
21658;BME280;10990;48.174;9.782;2023-04-16T10:39:20;93582.09;;;9.35;100.00
21658;BME280;10990;48.174;9.782;2023-04-16T10:41:47;93591.75;;;9.22;100.00
21658;BME280;10990;48.174;9.782;2023-04-16T10:44:16;93602.75;;;9.32;100.00
21658;BME280;10990;48.174;9.782;2023-04-16T10:46:44;93590.47;;;9.46;100.00
21658;BME280;10990;48.174;9.782;2023-04-16T10:49:16;93582.88;;;9.64;100.00
21658;BME280;10990;48.174;9.782;2023-04-16T10:51:52;93575.19;;;9.69;100.00
21658;BME280;10990;48.174;9.782;2023-04-16T10:54:22;93592.78;;;9.55;100.00
21658;BME280;10990;48.174;9.782;2023-04-16T10:56:50;93620.38;;;9.25;100.00
21658;BME280;10990;48.174;9.782;2023-04-16T10:59:18;93605.31;;;9.47;100.00
21658;BME280;10990;48.174;9.782;2023-04-16T11:01:46;93618.66;;;9.38;100.00
21658;BME280;10990;48.174;9.782;2023-04-16T11:04:28;93591.47;;;9.45;100.00
21658;BME280;10990;48.174;9.782;2023-04-16T11:07:03;93605.06;;;9.41;100.00
21658;BME280;10990;48.174;9.782;2023-04-16T11:09:49;93610.19;;;9.50;100.00
21658;BME280;10990;48.174;9.782;2023-04-16T11:12:18;93620.16;;;9.26;100.00
21658;BME280;10990;48.174;9.782;2023-04-16T11:14:47;93617.00;;;9.37;100.00
21658;BME280;10990;48.174;9.782;2023-04-16T11:17:14;93626.28;;;9.27;100.00
21658;BME280;10990;48.174;9.782;2023-04-16T11:19:43;93640.28;;;9.27;100.00
21658;BME280;10990;48.174;9.782;2023-04-16T11:22:11;93640.91;;;9.29;100.00
21658;BME280;10990;48.174;9.782;2023-04-16T11:24:39;93622.03;;;9.60;100.00
21658;BME280;10990;48.174;9.782;2023-04-16T11:27:06;93631.16;;;9.58;100.00
21658;BME280;10990;48.174;9.782;2023-04-16T11:29:33;93635.09;;;9.69;100.00
21658;BME280;10990;48.174;9.782;2023-04-16T11:32:00;93654.97;;;9.71;100.00
21658;BME280;10990;48.174;9.782;2023-04-16T11:34:27;93653.22;;;9.85;100.00
21658;BME280;10990;48.174;9.782;2023-04-16T11:36:55;93659.34;;;9.85;100.00
21658;BME280;10990;48.174;9.782;2023-04-16T11:39:22;93657.78;;;9.98;100.00
21658;BME280;10990;48.174;9.782;2023-04-16T11:41:50;93667.94;;;9.94;100.00
21658;BME280;10990;48.174;9.782;2023-04-16T11:44:21;93690.72;;;9.74;100.00
21658;BME280;10990;48.174;9.782;2023-04-16T11:46:48;93691.59;;;9.81;100.00
21658;BME280;10990;48.174;9.782;2023-04-16T11:49:15;93685.38;;;9.88;100.00
21658;BME280;10990;48.174;9.782;2023-04-16T11:51:43;93711.81;;;9.67;100.00
21658;BME280;10990;48.174;9.782;2023-04-16T11:54:19;93713.50;;;9.75;100.00
21658;BME280;10990;48.174;9.782;2023-04-16T11:56:46;93765.44;;;9.25;100.00
21658;BME280;10990;48.174;9.782;2023-04-16T11:59:15;93767.00;;;9.40;100.00
21658;BME280;10990;48.174;9.782;2023-04-16T12:01:45;93781.56;;;9.15;100.00
21658;BME280;10990;48.174;9.782;2023-04-16T12:04:13;93757.19;;;9.34;100.00
21658;BME280;10990;48.174;9.782;2023-04-16T12:06:40;93735.97;;;9.42;100.00
21658;BME280;10990;48.174;9.782;2023-04-16T12:09:24;93746.13;;;9.46;100.00
21658;BME280;10990;48.174;9.782;2023-04-16T12:11:51;93743.31;;;9.47;100.00
21658;BME280;10990;48.174;9.782;2023-04-16T12:14:18;93756.63;;;9.60;100.00
21658;BME280;10990;48.174;9.782;2023-04-16T12:16:45;93748.47;;;9.83;100.00
21658;BME280;10990;48.174;9.782;2023-04-16T12:19:12;93754.53;;;9.77;100.00
21658;BME280;10990;48.174;9.782;2023-04-16T12:21:40;93751.66;;;10.00;100.00
21658;BME280;10990;48.174;9.782;2023-04-16T12:24:09;93802.56;;;9.66;100.00
21658;BME280;10990;48.174;9.782;2023-04-16T12:26:43;93798.53;;;9.70;100.00
21658;BME280;10990;48.174;9.782;2023-04-16T12:29:18;93785.53;;;9.69;100.00
21658;BME280;10990;48.174;9.782;2023-04-16T12:31:46;93804.19;;;9.46;100.00
21658;BME280;10990;48.174;9.782;2023-04-16T12:34:13;93802.69;;;9.58;100.00
21658;BME280;10990;48.174;9.782;2023-04-16T12:36:41;93791.25;;;9.72;100.00
21658;BME280;10990;48.174;9.782;2023-04-16T12:39:08;93791.16;;;9.65;100.00
21658;BME280;10990;48.174;9.782;2023-04-16T12:41:36;93809.81;;;9.57;100.00
21658;BME280;10990;48.174;9.782;2023-04-16T12:44:06;93809.47;;;9.46;100.00
21658;BME280;10990;48.174;9.782;2023-04-16T12:46:37;93838.75;;;9.29;100.00
21658;BME280;10990;48.174;9.782;2023-04-16T12:49:03;93813.81;;;9.53;100.00
21658;BME280;10990;48.174;9.782;2023-04-16T12:51:31;93816.34;;;9.25;100.00
21658;BME280;10990;48.174;9.782;2023-04-16T12:53:58;93815.97;;;9.28;100.00
21658;BME280;10990;48.174;9.782;2023-04-16T12:56:25;93823.16;;;8.98;100.00
21658;BME280;10990;48.174;9.782;2023-04-16T12:58:52;93821.34;;;8.98;100.00
21658;BME280;10990;48.174;9.782;2023-04-16T13:01:20;93798.91;;;9.24;100.00
21658;BME280;10990;48.174;9.782;2023-04-16T13:03:47;93796.34;;;9.31;100.00